createdAt,value
2023-08-06T00:01:06.801Z,99870.81
2023-08-06T00:03:36.006Z,99877.63
2023-08-06T00:06:07.242Z,99870.28
2023-08-06T00:08:36.216Z,99869.47
2023-08-06T00:11:05.289Z,99871.88
2023-08-06T00:13:34.261Z,99869.97
2023-08-06T00:16:13.144Z,99872.13
2023-08-06T00:18:42.954Z,99867.53
2023-08-06T00:21:13.556Z,99868.16
2023-08-06T00:23:43.284Z,99868.03
2023-08-06T00:26:12.532Z,99866.06
2023-08-06T00:28:41.587Z,99871.47
2023-08-06T00:31:12.086Z,99872.84
2023-08-06T00:33:41.095Z,99874.19
2023-08-06T00:36:10.105Z,99868.44
2023-08-06T00:38:39.167Z,99869.69
2023-08-06T00:41:08.221Z,99864.72
2023-08-06T00:43:37.326Z,99867.03
2023-08-06T00:46:06.845Z,99862.25
2023-08-06T00:48:37.756Z,99868.31
2023-08-06T00:51:07.035Z,99869.78
2023-08-06T00:53:36.148Z,99875.06
2023-08-06T00:56:06.711Z,99874.91
2023-08-06T00:58:37.473Z,99872.19
2023-08-06T01:01:06.776Z,99866.75
2023-08-06T01:03:37.234Z,99876.53
2023-08-06T01:06:07.027Z,99876.59
2023-08-06T01:08:51.289Z,99878.31
2023-08-06T01:11:29.223Z,99877.66
2023-08-06T01:14:09.895Z,99879.63
2023-08-06T01:16:41.156Z,99881.44
2023-08-06T01:19:20.276Z,99880.59
2023-08-06T01:21:51.184Z,99884.25
2023-08-06T01:24:20.454Z,99879.69
2023-08-06T01:27:04.924Z,99883.25
2023-08-06T01:29:38.354Z,99882.84
2023-08-06T01:32:11.314Z,99884.59
2023-08-06T01:34:43.018Z,99891.16
2023-08-06T01:37:14.982Z,99877.16
2023-08-06T01:39:45.736Z,99882.50
2023-08-06T01:42:15.152Z,99884.63
2023-08-06T01:44:44.214Z,99890.66
2023-08-06T01:47:13.741Z,99888.78
2023-08-06T01:49:42.774Z,99899.00
2023-08-06T01:52:11.858Z,99897.25
2023-08-06T01:54:42.259Z,99891.22
2023-08-06T01:57:11.332Z,99890.78
2023-08-06T01:59:40.358Z,99888.75
2023-08-06T02:02:10.433Z,99886.78
2023-08-06T02:04:42.403Z,99887.72
2023-08-06T02:07:11.425Z,99887.91
2023-08-06T02:09:41.761Z,99883.31
2023-08-06T02:12:11.122Z,99894.97
2023-08-06T02:14:40.155Z,99899.22
2023-08-06T02:17:09.155Z,99897.75
2023-08-06T02:19:38.138Z,99893.41
2023-08-06T02:22:07.739Z,99901.44
2023-08-06T02:24:36.772Z,99901.34
2023-08-06T02:27:07.622Z,99906.03
2023-08-06T02:29:36.635Z,99907.25
2023-08-06T02:32:06.258Z,99909.31
2023-08-06T02:34:35.964Z,99906.41
2023-08-06T02:37:05.162Z,99901.97
2023-08-06T02:39:34.888Z,99904.88
2023-08-06T02:42:04.735Z,99911.94
2023-08-06T02:44:35.993Z,99910.25
2023-08-06T02:47:05.356Z,99910.41
2023-08-06T02:49:34.437Z,99911.56
2023-08-06T02:52:03.425Z,99918.06
2023-08-06T02:54:32.502Z,99912.69
2023-08-06T02:57:02.690Z,99909.56
2023-08-06T02:59:35.860Z,99910.31
2023-08-06T03:02:12.250Z,99906.28
2023-08-06T03:05:05.929Z,99903.78
2023-08-06T03:07:38.805Z,99911.97
2023-08-06T03:10:22.823Z,99905.66
2023-08-06T03:12:54.459Z,99905.16
2023-08-06T03:15:25.804Z,99898.41
2023-08-06T03:17:58.730Z,99907.34
2023-08-06T03:20:28.713Z,99907.09
2023-08-06T03:22:57.754Z,99903.09
2023-08-06T03:25:26.777Z,99903.53
2023-08-06T03:27:56.180Z,99902.28
2023-08-06T03:30:26.900Z,99909.16
2023-08-06T03:32:57.353Z,99906.53
2023-08-06T03:35:27.250Z,99899.50
2023-08-06T03:37:56.522Z,99901.16
2023-08-06T03:40:25.643Z,99906.72
2023-08-06T03:42:54.777Z,99913.97
2023-08-06T03:45:23.821Z,99905.09
2023-08-06T03:47:54.793Z,99913.28
2023-08-06T03:50:24.203Z,99908.66
2023-08-06T03:52:54.410Z,99907.88
2023-08-06T03:55:24.460Z,99901.97
2023-08-06T03:57:53.464Z,99901.53
2023-08-06T04:00:22.778Z,99900.94
2023-08-06T04:02:56.972Z,99899.47
2023-08-06T04:05:26.245Z,99896.31
2023-08-06T04:07:55.305Z,99901.66
2023-08-06T04:10:24.451Z,99896.59
2023-08-06T04:12:53.606Z,99900.22
2023-08-06T04:15:22.656Z,99901.69
2023-08-06T04:17:51.731Z,99897.78
2023-08-06T04:20:22.432Z,99890.38
2023-08-06T04:22:51.622Z,99900.81
2023-08-06T04:25:22.308Z,99891.06
2023-08-06T04:27:51.600Z,99891.97
2023-08-06T04:30:20.892Z,99895.63
2023-08-06T04:32:51.979Z,99897.44
2023-08-06T04:35:22.560Z,99892.09
2023-08-06T04:37:51.927Z,99900.09
2023-08-06T04:40:20.992Z,99889.78
2023-08-06T04:42:50.253Z,99896.13
2023-08-06T04:45:20.570Z,99891.75
2023-08-06T04:47:49.621Z,99893.88
2023-08-06T04:50:18.918Z,99889.41
2023-08-06T04:52:49.428Z,99881.81
2023-08-06T04:55:18.889Z,99883.78
2023-08-06T04:57:48.681Z,99896.56
2023-08-06T05:00:17.795Z,99894.94
2023-08-06T05:02:46.873Z,99889.88
2023-08-06T05:05:16.071Z,99893.66
2023-08-06T05:07:45.381Z,99887.69
2023-08-06T05:10:15.851Z,99893.31
2023-08-06T05:12:45.024Z,99898.78
2023-08-06T05:15:14.108Z,99889.94
2023-08-06T05:17:43.245Z,99881.19
2023-08-06T05:20:13.882Z,99887.63
2023-08-06T05:22:42.960Z,99890.47
2023-08-06T05:25:12.127Z,99890.66
2023-08-06T05:27:42.613Z,99880.09
2023-08-06T05:30:12.821Z,99885.47
2023-08-06T05:32:41.862Z,99878.41
2023-08-06T05:35:11.184Z,99877.50
2023-08-06T05:37:40.195Z,99875.69
2023-08-06T05:40:10.417Z,99875.09
2023-08-06T05:42:39.485Z,99878.84
2023-08-06T05:45:11.497Z,99878.38
2023-08-06T05:47:40.557Z,99880.44
2023-08-06T05:50:11.317Z,99875.13
2023-08-06T05:52:40.464Z,99883.38
2023-08-06T05:55:10.324Z,99877.38
2023-08-06T05:57:39.321Z,99886.13
2023-08-06T06:00:11.212Z,99887.16
2023-08-06T06:02:42.733Z,99881.44
2023-08-06T06:05:11.690Z,99877.69
2023-08-06T06:07:40.975Z,99876.38
2023-08-06T06:10:10.955Z,99875.66
2023-08-06T06:12:41.427Z,99873.31
2023-08-06T06:15:12.579Z,99874.38
2023-08-06T06:17:41.820Z,99872.53
2023-08-06T06:20:11.404Z,99869.16
2023-08-06T06:22:40.449Z,99867.53
2023-08-06T06:25:10.976Z,99867.38
2023-08-06T06:27:40.027Z,99873.88
2023-08-06T06:30:13.269Z,99866.03
2023-08-06T06:32:42.413Z,99866.97
2023-08-06T06:35:12.573Z,99871.38
2023-08-06T06:37:41.837Z,99867.84
2023-08-06T06:40:11.608Z,99865.28
2023-08-06T06:42:40.732Z,99864.66
2023-08-06T06:45:13.358Z,99863.94
2023-08-06T06:47:42.465Z,99869.22
2023-08-06T06:50:12.126Z,99858.09
2023-08-06T06:52:41.225Z,99860.84
2023-08-06T06:55:10.879Z,99865.56
2023-08-06T06:57:40.315Z,99854.22
2023-08-06T07:00:10.490Z,99858.97
2023-08-06T07:02:41.060Z,99868.13
2023-08-06T07:05:10.828Z,99856.59
2023-08-06T07:07:40.062Z,99849.38
2023-08-06T07:10:09.962Z,99864.72
2023-08-06T07:12:39.239Z,99862.03
2023-08-06T07:15:15.678Z,99868.38
2023-08-06T07:17:46.325Z,99862.16
2023-08-06T07:20:15.503Z,99862.22
2023-08-06T07:22:45.148Z,99861.34
2023-08-06T07:25:14.452Z,99856.84
2023-08-06T07:27:43.847Z,99854.19
2023-08-06T07:30:13.645Z,99851.53
2023-08-06T07:32:42.658Z,99854.16
2023-08-06T07:35:15.789Z,99847.78
2023-08-06T07:37:44.858Z,99842.50
2023-08-06T07:40:15.032Z,99854.22
2023-08-06T07:42:44.011Z,99856.06
2023-08-06T07:45:13.300Z,99859.63
2023-08-06T07:47:42.746Z,99852.47
2023-08-06T07:50:13.340Z,99848.09
2023-08-06T07:52:42.417Z,99836.44
2023-08-06T07:55:11.651Z,99844.53
2023-08-06T07:57:40.712Z,99847.22
2023-08-06T08:00:10.821Z,99846.31
2023-08-06T08:02:42.641Z,99842.69
2023-08-06T08:05:13.130Z,99840.00
2023-08-06T08:07:42.296Z,99834.63
2023-08-06T08:10:11.547Z,99843.63
2023-08-06T08:12:40.588Z,99832.88
2023-08-06T08:15:10.228Z,99832.88
2023-08-06T08:17:39.234Z,99840.06
2023-08-06T08:20:09.276Z,99837.38
2023-08-06T08:22:40.008Z,99825.72
2023-08-06T08:25:09.296Z,99831.13
2023-08-06T08:27:38.359Z,99826.63
2023-08-06T08:30:08.798Z,99825.72
2023-08-06T08:32:37.815Z,99823.97
2023-08-06T08:35:07.292Z,99824.84
2023-08-06T08:37:37.493Z,99812.25
2023-08-06T08:40:17.524Z,99817.66
2023-08-06T08:42:46.505Z,99820.34
2023-08-06T08:45:16.561Z,99823.03
2023-08-06T08:47:47.486Z,99811.34
2023-08-06T08:50:16.647Z,99817.63
2023-08-06T08:52:47.754Z,99816.72
2023-08-06T08:55:18.849Z,99815.84
2023-08-06T08:57:48.557Z,99814.03
2023-08-06T09:00:18.987Z,99814.03
2023-08-06T09:02:48.943Z,99806.84
2023-08-06T09:05:19.163Z,99806.88
2023-08-06T09:07:51.408Z,99808.66
2023-08-06T09:10:24.750Z,99802.38
2023-08-06T09:12:55.583Z,99800.53
2023-08-06T09:15:26.913Z,99798.69
2023-08-06T09:17:56.556Z,99808.59
2023-08-06T09:20:26.014Z,99799.59
2023-08-06T09:22:55.757Z,99805.94
2023-08-06T09:25:28.084Z,99799.59
2023-08-06T09:27:57.215Z,99793.28
2023-08-06T09:30:33.563Z,99799.56
2023-08-06T09:33:02.965Z,99798.72
2023-08-06T09:35:33.691Z,99796.03
2023-08-06T09:38:11.757Z,99792.44
2023-08-06T09:40:42.898Z,99794.16
2023-08-06T09:43:14.320Z,99793.22
2023-08-06T09:45:45.058Z,99790.47
2023-08-06T09:48:14.248Z,99790.56
2023-08-06T09:50:43.594Z,99789.75
2023-08-06T09:53:12.680Z,99787.88
2023-08-06T09:55:43.316Z,99786.00
2023-08-06T09:58:12.499Z,99771.63
2023-08-06T10:00:41.644Z,99775.28
2023-08-06T10:03:15.253Z,99763.66
2023-08-06T10:05:48.153Z,99766.34
2023-08-06T10:08:18.473Z,99759.03
2023-08-06T10:10:49.086Z,99762.59
2023-08-06T10:13:21.036Z,99748.94
2023-08-06T10:15:51.162Z,99754.25
2023-08-06T10:18:22.589Z,99746.13
2023-08-06T10:20:51.821Z,99746.00
2023-08-06T10:23:22.319Z,99746.03
2023-08-06T10:25:57.956Z,99743.66
2023-08-06T10:28:36.972Z,99740.91
2023-08-06T10:31:07.014Z,99739.03
2023-08-06T10:33:53.687Z,99737.97
2023-08-06T10:36:22.744Z,99746.03
2023-08-06T10:38:52.845Z,99744.25
2023-08-06T10:41:30.966Z,99734.28
2023-08-06T10:44:09.674Z,99739.66
2023-08-06T10:46:39.469Z,99734.00
2023-08-06T10:49:08.808Z,99732.88
2023-08-06T10:51:39.103Z,99730.84
2023-08-06T10:54:08.433Z,99730.41
2023-08-06T10:56:43.002Z,99738.44
2023-08-06T10:59:12.612Z,99728.47
2023-08-06T11:01:41.955Z,99722.19
2023-08-06T11:04:17.064Z,99729.63
2023-08-06T11:06:46.094Z,99723.56
2023-08-06T11:09:15.199Z,99719.22
2023-08-06T11:11:46.220Z,99722.72
2023-08-06T11:14:18.022Z,99714.47
2023-08-06T11:16:47.167Z,99726.91
2023-08-06T11:19:17.462Z,99711.50
2023-08-06T11:21:48.854Z,99715.91
2023-08-06T11:24:17.986Z,99721.47
2023-08-06T11:26:48.460Z,99724.09
2023-08-06T11:29:18.229Z,99716.63
2023-08-06T11:31:47.256Z,99714.22
2023-08-06T11:34:16.341Z,99716.53
2023-08-06T11:36:46.884Z,99709.44
2023-08-06T11:39:15.978Z,99714.63
2023-08-06T11:41:46.191Z,99714.59
2023-08-06T11:44:17.959Z,99708.00
2023-08-06T11:46:54.573Z,99702.38
2023-08-06T11:49:39.353Z,99702.00
2023-08-06T11:52:16.221Z,99705.50
2023-08-06T11:54:45.293Z,99703.31
2023-08-06T11:57:16.079Z,99700.22
2023-08-06T11:59:48.447Z,99703.13
2023-08-06T12:02:18.549Z,99686.91
2023-08-06T12:05:07.457Z,99695.94
2023-08-06T12:07:40.713Z,99693.19
2023-08-06T12:10:10.709Z,99681.50
2023-08-06T12:12:39.914Z,99678.75
2023-08-06T12:15:11.961Z,99682.19
2023-08-06T12:17:41.891Z,99672.22
2023-08-06T12:20:12.057Z,99681.16
2023-08-06T12:22:41.726Z,99681.09
2023-08-06T12:25:13.067Z,99670.94
2023-08-06T12:27:44.117Z,99671.38
2023-08-06T12:30:15.329Z,99674.31
2023-08-06T12:32:44.525Z,99685.28
2023-08-06T12:35:15.354Z,99672.66
2023-08-06T12:37:45.336Z,99668.94
2023-08-06T12:42:46.626Z,99666.59
2023-08-06T12:45:17.087Z,99669.16
2023-08-06T12:47:46.910Z,99671.00
2023-08-06T12:50:16.246Z,99668.34
2023-08-06T12:52:45.275Z,99665.63
2023-08-06T12:55:14.399Z,99665.00
2023-08-06T12:57:57.496Z,99665.09
2023-08-06T13:00:29.629Z,99663.34
2023-08-06T13:02:58.823Z,99672.09
2023-08-06T13:05:27.896Z,99662.94
2023-08-06T13:07:56.890Z,99651.38
2023-08-06T13:10:27.094Z,99652.28
2023-08-06T13:12:56.136Z,99653.25
2023-08-06T13:15:25.179Z,99652.44
2023-08-06T13:17:55.690Z,99648.22
2023-08-06T13:20:25.096Z,99647.53
2023-08-06T13:22:55.069Z,99653.13
2023-08-06T13:25:24.304Z,99647.81
2023-08-06T13:27:53.320Z,99648.63
2023-08-06T13:30:24.346Z,99640.47
2023-08-06T13:32:53.450Z,99640.31
2023-08-06T13:35:24.403Z,99649.38
2023-08-06T13:37:53.647Z,99650.38
2023-08-06T13:40:23.036Z,99637.72
2023-08-06T13:42:52.159Z,99640.63
2023-08-06T13:45:21.476Z,99642.53
2023-08-06T13:47:50.561Z,99638.97
2023-08-06T13:50:20.344Z,99632.03
2023-08-06T13:52:50.942Z,99636.59
2023-08-06T13:55:19.921Z,99624.09
2023-08-06T13:57:49.137Z,99631.31
2023-08-06T14:00:18.145Z,99632.25
2023-08-06T14:02:47.267Z,99629.56
2023-08-06T14:05:16.391Z,99627.78
2023-08-06T14:07:45.528Z,99625.03
2023-08-06T14:10:16.085Z,99627.75
2023-08-06T14:12:51.999Z,99620.53
2023-08-06T14:15:27.191Z,99619.63
2023-08-06T14:17:56.440Z,99625.06
2023-08-06T14:20:25.612Z,99626.00
2023-08-06T14:22:54.971Z,99626.09
2023-08-06T14:25:25.580Z,99619.81
2023-08-06T14:27:54.642Z,99618.97
2023-08-06T14:30:23.723Z,99618.03
2023-08-06T14:32:52.830Z,99618.13
2023-08-06T14:35:21.838Z,99618.16
2023-08-06T14:37:51.086Z,99606.53
2023-08-06T14:40:20.325Z,99613.69
2023-08-06T14:42:50.808Z,99603.81
2023-08-06T14:45:19.832Z,99608.31
2023-08-06T14:47:48.929Z,99612.84
2023-08-06T14:50:18.483Z,99608.31
2023-08-06T14:52:47.654Z,99607.38
2023-08-06T14:55:25.160Z,99604.66
2023-08-06T14:57:56.232Z,99593.94
2023-08-06T15:00:25.616Z,99597.56
2023-08-06T15:02:54.693Z,99595.72
2023-08-06T15:05:23.835Z,99591.22
2023-08-06T15:07:54.227Z,99597.47
2023-08-06T15:10:27.918Z,99596.53
2023-08-06T15:12:58.675Z,99602.78
2023-08-06T15:15:29.318Z,99595.56
2023-08-06T15:17:58.742Z,99595.59
2023-08-06T15:20:27.981Z,99596.47
2023-08-06T15:22:59.424Z,99599.09
2023-08-06T15:25:28.901Z,99599.16
2023-08-06T15:27:59.353Z,99602.84
2023-08-06T15:30:28.454Z,99602.88
2023-08-06T15:32:57.679Z,99603.84
2023-08-06T15:35:26.734Z,99596.69
2023-08-06T15:37:55.803Z,99601.19
2023-08-06T15:40:24.952Z,99597.63
2023-08-06T15:42:53.988Z,99600.31
2023-08-06T15:45:24.460Z,99605.69
2023-08-06T15:47:53.612Z,99607.50
2023-08-06T15:50:22.855Z,99611.97
2023-08-06T15:52:51.943Z,99599.38
2023-08-06T15:55:21.332Z,99595.81
2023-08-06T15:57:50.462Z,99600.28
2023-08-06T16:00:19.638Z,99602.09
2023-08-06T16:02:50.180Z,99609.25
2023-08-06T16:05:20.122Z,99602.94
2023-08-06T16:07:52.110Z,99603.78
2023-08-06T16:10:21.423Z,99601.06
2023-08-06T16:12:50.453Z,99601.94
2023-08-06T16:15:20.977Z,99598.31
2023-08-06T16:17:51.836Z,99604.56
2023-08-06T16:20:20.955Z,99609.88
2023-08-06T16:22:50.773Z,99612.50
2023-08-06T16:25:20.112Z,99616.94
2023-08-06T16:27:49.893Z,99611.53
2023-08-06T16:30:19.190Z,99605.25
2023-08-06T16:32:48.305Z,99604.22
2023-08-06T16:35:19.013Z,99610.47
2023-08-06T16:37:49.464Z,99609.47
2023-08-06T16:40:18.943Z,99603.03
2023-08-06T16:42:48.602Z,99604.69
2023-08-06T16:45:17.830Z,99595.59
2023-08-06T16:47:47.075Z,99596.31
2023-08-06T16:50:16.754Z,99602.44
2023-08-06T16:52:47.192Z,99596.00
2023-08-06T16:55:16.732Z,99600.25
2023-08-06T16:57:45.760Z,99600.97
2023-08-06T17:00:15.139Z,99600.75
2023-08-06T17:02:44.524Z,99593.41
2023-08-06T17:05:13.637Z,99600.38
2023-08-06T17:07:45.024Z,99596.59
2023-08-06T17:10:15.635Z,99601.72
2023-08-06T17:12:45.919Z,99601.50
2023-08-06T17:15:15.025Z,99600.38
2023-08-06T17:17:44.079Z,99601.00
2023-08-06T17:20:14.149Z,99591.78
2023-08-06T17:22:43.246Z,99600.41
2023-08-06T17:25:12.445Z,99605.63
2023-08-06T17:27:42.906Z,99599.19
2023-08-06T17:30:12.832Z,99598.00
2023-08-06T17:32:42.129Z,99610.28
2023-08-06T17:35:11.430Z,99604.75
2023-08-06T17:37:40.619Z,99596.59
2023-08-06T17:40:11.101Z,99603.56
2023-08-06T17:42:40.266Z,99597.16
2023-08-06T17:45:11.639Z,99606.88
2023-08-06T17:47:42.178Z,99597.97
2023-08-06T17:50:11.976Z,99598.75
2023-08-06T17:52:41.005Z,99599.50
2023-08-06T17:55:10.797Z,99594.94
2023-08-06T17:57:39.770Z,99593.00
2023-08-06T18:01:16.470Z,99590.09
2023-08-06T18:03:51.295Z,99596.31
2023-08-06T18:06:20.123Z,99590.88
2023-08-06T18:08:49.029Z,99596.94
2023-08-06T18:11:19.137Z,99604.72
2023-08-06T18:13:48.263Z,99597.31
2023-08-06T18:16:17.458Z,99601.63
2023-08-06T18:18:48.095Z,99602.41
2023-08-06T18:21:18.554Z,99602.38
2023-08-06T18:23:47.499Z,99603.06
2023-08-06T18:26:16.600Z,99606.34
2023-08-06T18:28:46.181Z,99605.41
2023-08-06T18:31:15.283Z,99601.81
2023-08-06T18:33:44.320Z,99596.16
2023-08-06T18:36:14.878Z,99600.41
2023-08-06T18:38:44.576Z,99598.53
2023-08-06T18:41:13.696Z,99595.72
2023-08-06T18:43:42.707Z,99598.25
2023-08-06T18:46:11.888Z,99599.88
2023-08-06T18:48:40.963Z,99605.09
2023-08-06T18:51:14.421Z,99599.56
2023-08-06T18:53:43.446Z,99597.56
2023-08-06T18:56:12.457Z,99601.03
2023-08-06T18:58:41.750Z,99603.38
2023-08-06T19:01:11.186Z,99599.41
2023-08-06T19:03:40.329Z,99605.34
2023-08-06T19:06:09.451Z,99605.34
2023-08-06T19:08:41.010Z,99606.16
2023-08-06T19:11:09.979Z,99593.69
2023-08-06T19:13:39.038Z,99598.94
2023-08-06T19:16:08.084Z,99603.22
2023-08-06T19:18:38.207Z,99603.19
2023-08-06T19:21:07.455Z,99595.03
2023-08-06T19:23:36.504Z,99597.53
2023-08-06T19:26:07.191Z,99603.69
2023-08-06T19:28:36.513Z,99595.47
2023-08-06T19:31:05.617Z,99598.88
2023-08-06T19:33:34.749Z,99588.88
2023-08-06T19:36:04.202Z,99601.16
2023-08-06T19:38:33.903Z,99597.41
2023-08-06T19:41:11.111Z,99596.41
2023-08-06T19:43:40.652Z,99595.34
2023-08-06T19:46:09.786Z,99597.13
2023-08-06T19:48:39.794Z,99592.63
2023-08-06T19:51:08.952Z,99588.41
2023-08-06T19:53:40.415Z,99590.03
2023-08-06T19:56:10.822Z,99589.16
2023-08-06T19:58:39.942Z,99596.13
2023-08-06T20:01:10.698Z,99589.69
2023-08-06T20:03:44.546Z,99585.97
2023-08-06T20:06:14.395Z,99590.44
2023-08-06T20:08:43.405Z,99588.50
2023-08-06T20:11:13.868Z,99590.91
2023-08-06T20:13:43.014Z,99583.78
2023-08-06T20:16:13.268Z,99585.59
2023-08-06T20:18:42.890Z,99584.72
2023-08-06T20:21:12.209Z,99590.84
2023-08-06T20:23:41.324Z,99588.16
2023-08-06T20:26:10.698Z,99594.50
2023-08-06T20:28:42.111Z,99595.25
2023-08-06T20:31:11.473Z,99585.25
2023-08-06T20:33:40.704Z,99584.56
2023-08-06T20:36:09.961Z,99585.50
2023-08-06T20:38:39.278Z,99578.38
2023-08-06T20:41:08.914Z,99583.63
2023-08-06T20:43:42.253Z,99591.50
2023-08-06T20:46:14.975Z,99578.13
2023-08-06T20:48:50.734Z,99581.66
2023-08-06T20:51:58.789Z,99583.44
2023-08-06T20:54:58.920Z,99586.66
2023-08-06T20:57:30.145Z,99583.91
2023-08-06T21:00:01.754Z,99576.84
2023-08-06T21:02:34.963Z,99580.56
2023-08-06T21:05:04.227Z,99581.41
2023-08-06T21:07:37.408Z,99577.75
2023-08-06T21:10:07.067Z,99590.16
2023-08-06T21:12:36.049Z,99588.25
2023-08-06T21:15:05.344Z,99586.34
2023-08-06T21:17:59.152Z,99588.78
2023-08-06T21:20:30.249Z,99589.75
2023-08-06T21:22:59.327Z,99593.19
2023-08-06T21:25:28.376Z,99592.31
2023-08-06T21:27:57.521Z,99602.00
2023-08-06T21:30:26.569Z,99605.28
2023-08-06T21:32:58.769Z,99596.97
2023-08-06T21:35:29.589Z,99601.34
2023-08-06T21:37:58.944Z,99603.72
2023-08-06T21:40:28.027Z,99596.38
2023-08-06T21:42:57.113Z,99599.16
2023-08-06T21:45:26.139Z,99603.53
2023-08-06T21:47:56.633Z,99606.84
2023-08-06T21:50:25.797Z,99603.28
2023-08-06T21:52:54.704Z,99597.13
2023-08-06T21:55:23.711Z,99593.47
2023-08-06T21:57:52.819Z,99592.28
2023-08-06T22:00:22.033Z,99599.19
2023-08-06T22:02:51.061Z,99591.84
2023-08-06T22:05:21.725Z,99602.22
2023-08-06T22:07:50.737Z,99609.09
2023-08-06T22:10:19.726Z,99608.38
2023-08-06T22:12:48.625Z,99614.66
2023-08-06T22:15:17.631Z,99612.53
2023-08-06T22:17:46.783Z,99606.28
2023-08-06T22:20:17.153Z,99601.84
2023-08-06T22:22:47.638Z,99603.63
2023-08-06T22:25:16.753Z,99599.06
2023-08-06T22:27:45.738Z,99601.34
2023-08-06T22:30:16.043Z,99608.19
2023-08-06T22:32:45.158Z,99602.75
2023-08-06T22:35:16.342Z,99611.44
2023-08-06T22:37:45.499Z,99606.63
2023-08-06T22:40:16.384Z,99602.88
2023-08-06T22:42:45.605Z,99599.16
2023-08-06T22:45:15.968Z,99592.66
2023-08-06T22:47:45.257Z,99597.66
2023-08-06T22:50:14.354Z,99596.63
2023-08-06T22:52:44.606Z,99597.34
2023-08-06T22:55:26.943Z,99598.28
2023-08-06T22:58:03.919Z,99598.28
2023-08-06T23:00:33.146Z,99601.78
2023-08-06T23:03:09.889Z,99590.94
2023-08-06T23:05:40.413Z,99592.75
2023-08-06T23:08:09.545Z,99595.41
2023-08-06T23:10:39.291Z,99582.94
2023-08-06T23:13:09.736Z,99587.91
2023-08-06T23:15:38.933Z,99589.59
2023-08-06T23:18:08.232Z,99588.78
2023-08-06T23:20:38.113Z,99583.34
2023-08-06T23:23:07.219Z,99583.38
2023-08-06T23:25:37.212Z,99577.06
2023-08-06T23:28:06.622Z,99587.47
2023-08-06T23:30:37.211Z,99582.94
2023-08-06T23:33:06.312Z,99581.84
2023-08-06T23:35:35.318Z,99582.69
2023-08-06T23:38:07.386Z,99581.84
2023-08-06T23:40:36.626Z,99578.03
2023-08-06T23:43:05.993Z,99588.41
2023-08-06T23:45:36.404Z,99581.25
2023-08-06T23:48:05.804Z,99588.84
2023-08-06T23:50:35.113Z,99588.47
2023-08-06T23:53:04.087Z,99585.69
2023-08-06T23:55:33.550Z,99581.09
2023-08-06T23:58:02.743Z,99574.84
